Time;durP1;ratioP1;P1;durP2;ratioP2;P2;SDS_P1;SDS_P2;PMS_P1;PMS_P2;Temp;Humidity;BMP_temperature;BMP_pressure;BME280_temperature;BME280_humidity;BME280_pressure;Samples;Min_cycle;Max_cycle;Signal;HPM_P1;HPM_P2
2023/02/10 00:00:09;;;;;;;36.17;27.07;;;;;;;0.64;100.00;102723.16;692290;28;896;-65
2023/02/10 00:00:29;;;;;;;38.40;26.75;;;;;;;0.62;100.00;102727.28;693210;28;884;-65
2023/02/10 00:00:50;;;;;;;38.70;27.07;;;;;;;0.64;100.00;102731.75;694365;28;4376;-64
2023/02/10 00:01:25;;;;;;;39.67;27.10;;;;;;;0.68;100.00;102720.91;694387;28;1057;-65
2023/02/10 00:01:45;;;;;;;38.55;27.45;;;;;;;0.69;100.00;102729.50;694136;28;1215;-64
2023/02/10 00:02:06;;;;;;;37.97;27.00;;;;;;;0.69;100.00;102729.50;694041;28;1291;-65
2023/02/10 00:02:28;;;;;;;37.97;27.07;;;;;;;0.71;100.00;102737.31;693740;28;852;-65
2023/02/10 00:02:49;;;;;;;37.47;27.92;;;;;;;0.68;100.00;102730.31;694299;28;921;-64
2023/02/10 00:03:09;;;;;;;38.50;27.95;;;;;;;0.65;100.00;102732.66;694309;28;911;-64
2023/02/10 00:03:30;;;;;;;36.90;27.50;;;;;;;0.66;100.00;102730.19;692719;28;2496;-64
2023/02/10 00:03:51;;;;;;;38.72;27.65;;;;;;;0.67;100.00;102731.09;693792;28;4314;-65
2023/02/10 00:04:13;;;;;;;38.78;27.42;;;;;;;0.67;100.00;102726.81;694930;28;856;-64
2023/02/10 00:04:33;;;;;;;37.72;27.48;;;;;;;0.65;100.00;102728.41;692377;28;820;-64
2023/02/10 00:04:53;;;;;;;34.77;26.60;;;;;;;0.65;100.00;102733.56;692164;28;1167;-65
2023/02/10 00:05:14;;;;;;;37.43;26.70;;;;;;;0.64;100.00;102739.50;691071;28;2111;-65
2023/02/10 00:05:34;;;;;;;36.13;26.40;;;;;;;0.63;100.00;102729.97;692235;28;2125;-65
2023/02/10 00:05:54;;;;;;;37.75;26.50;;;;;;;0.63;100.00;102732.53;694789;28;1049;-64
2023/02/10 00:06:16;;;;;;;38.03;27.03;;;;;;;0.64;100.00;102736.03;694397;28;2476;-65
2023/02/10 00:06:36;;;;;;;37.15;27.23;;;;;;;0.64;100.00;102731.75;694132;28;1168;-65
2023/02/10 00:06:57;;;;;;;38.37;27.40;;;;;;;0.65;100.00;102733.56;693772;28;4401;-63
2023/02/10 00:07:18;;;;;;;40.10;27.90;;;;;;;0.66;100.00;102737.91;695340;28;1296;-64
2023/02/10 00:07:38;;;;;;;40.37;27.47;;;;;;;0.65;100.00;102735.22;695182;28;1192;-63
2023/02/10 00:07:58;;;;;;;37.78;27.17;;;;;;;0.65;100.00;102740.38;695546;28;1213;-65
2023/02/10 00:08:19;;;;;;;37.50;27.40;;;;;;;0.64;100.00;102736.91;695569;28;884;-63
2023/02/10 00:08:39;;;;;;;39.88;27.73;;;;;;;0.62;100.00;102740.16;694629;28;2322;-64
2023/02/10 00:09:02;;;;;;;37.72;27.25;;;;;;;0.60;100.00;102739.19;694988;28;954;-65
2023/02/10 00:09:22;;;;;;;39.85;28.10;;;;;;;0.60;100.00;102744.31;694720;28;1438;-65
2023/02/10 00:09:42;;;;;;;38.90;28.43;;;;;;;0.57;100.00;102739.84;692468;28;4568;-63
2023/02/10 00:10:03;;;;;;;39.58;29.23;;;;;;;0.57;100.00;102739.84;694821;28;974;-64
2023/02/10 00:10:24;;;;;;;39.38;28.42;;;;;;;0.57;100.00;102734.72;693563;28;757;-65
2023/02/10 00:10:44;;;;;;;38.23;27.40;;;;;;;0.57;100.00;102742.44;695304;28;1017;-65
2023/02/10 00:11:10;;;;;;;38.85;27.27;;;;;;;0.59;100.00;102748.56;693527;28;977;-65
2023/02/10 00:12:11;;;;;;;36.65;27.40;;;;;;;0.60;100.00;102745.22;691381;28;1235;-62
2023/02/10 00:12:31;;;;;;;39.13;28.15;;;;;;;0.60;100.00;102742.63;692593;28;904;-64
2023/02/10 00:12:52;;;;;;;36.83;27.70;;;;;;;0.60;100.00;102745.22;693499;28;4591;-63
2023/02/10 00:13:12;;;;;;;37.65;27.83;;;;;;;0.60;100.00;102734.91;692812;28;835;-65
2023/02/10 00:13:33;;;;;;;38.27;27.77;;;;;;;0.62;100.00;102743.66;695161;28;1260;-64
2023/02/10 00:13:53;;;;;;;37.80;27.83;;;;;;;0.63;100.00;102739.38;693819;28;2442;-64
2023/02/10 00:14:15;;;;;;;38.90;28.07;;;;;;;0.62;100.00;102735.94;692879;28;973;-64
2023/02/10 00:14:36;;;;;;;38.10;27.67;;;;;;;0.64;100.00;102739.50;691055;28;860;-64
2023/02/10 00:14:56;;;;;;;39.63;28.20;;;;;;;0.63;100.00;102740.28;690771;28;1101;-64
2023/02/10 00:15:16;;;;;;;42.17;28.20;;;;;;;0.62;100.00;102743.66;693544;28;927;-65
2023/02/10 00:15:37;;;;;;;40.92;28.40;;;;;;;0.60;100.00;102742.63;692167;28;1495;-64
2023/02/10 00:15:59;;;;;;;41.00;28.80;;;;;;;0.60;100.00;102745.22;694135;28;4566;-64
2023/02/10 00:16:19;;;;;;;39.53;28.73;;;;;;;0.59;100.00;102732.25;695825;28;947;-65
2023/02/10 00:16:40;;;;;;;40.53;28.67;;;;;;;0.60;100.00;102740.06;695150;28;995;-64
2023/02/10 00:17:00;;;;;;;41.00;28.80;;;;;;;0.62;100.00;102737.59;694557;28;1508;-65
2023/02/10 00:17:21;;;;;;;42.27;28.70;;;;;;;0.64;100.00;102736.91;695443;28;1367;-65
2023/02/10 00:17:41;;;;;;;41.33;28.50;;;;;;;0.73;100.00;102738.34;693633;28;950;-64
2023/02/10 00:18:01;;;;;;;41.05;28.15;;;;;;;0.77;100.00;102732.63;693722;28;849;-64
2023/02/10 00:18:22;;;;;;;38.07;27.77;;;;;;;0.77;100.00;102737.75;694303;28;2208;-64
2023/02/10 00:18:42;;;;;;;37.25;27.55;;;;;;;0.79;100.00;102733.59;694691;28;4515;-65
2023/02/10 00:19:03;;;;;;;37.87;27.50;;;;;;;0.79;100.00;102737.09;695512;28;1270;-65
2023/02/10 00:19:25;;;;;;;37.47;27.10;;;;;;;0.77;100.00;102727.47;690082;28;808;-65
2023/02/10 00:19:46;;;;;;;35.45;27.15;;;;;;;0.76;100.00;102729.16;689974;28;1035;-64
2023/02/10 00:20:07;;;;;;;36.00;27.07;;;;;;;0.75;100.00;102734.16;689309;28;3442;-65
2023/02/10 00:20:28;;;;;;;37.30;27.52;;;;;;;0.75;100.00;102734.16;690484;28;928;-64
2023/02/10 00:20:48;;;;;;;36.27;26.93;;;;;;;0.75;100.00;102732.50;691599;28;1246;-64
2023/02/10 00:21:13;;;;;;;37.13;26.20;;;;;;;0.74;100.00;102732.41;692290;28;2431;-65
2023/02/10 00:21:34;;;;;;;37.63;27.92;;;;;;;0.72;100.00;102732.31;695161;28;923;-65
2023/02/10 00:21:54;;;;;;;37.20;27.53;;;;;;;0.70;100.00;102736.44;694109;28;4502;-64
2023/02/10 00:22:15;;;;;;;36.77;26.57;;;;;;;0.70;100.00;102735.56;695148;28;963;-63
2023/02/10 00:22:35;;;;;;;36.35;26.65;;;;;;;0.70;100.00;102735.56;697046;28;1355;-63
2023/02/10 00:22:56;;;;;;;37.87;27.47;;;;;;;0.68;100.00;102736.34;697582;28;1063;-64
2023/02/10 00:23:16;;;;;;;41.10;28.20;;;;;;;0.68;100.00;102732.88;694214;28;1062;-64
2023/02/10 00:23:37;;;;;;;40.80;28.67;;;;;;;0.69;100.00;102734.66;694116;28;1416;-64
2023/02/10 00:23:57;;;;;;;37.97;28.48;;;;;;;0.70;100.00;102738.13;694480;28;2712;-63
2023/02/10 00:24:19;;;;;;;39.63;28.23;;;;;;;0.68;100.00;102738.91;694590;28;1102;-64
2023/02/10 00:24:39;;;;;;;39.47;28.00;;;;;;;0.70;100.00;102739.00;693412;28;4629;-64
2023/02/10 00:24:59;;;;;;;39.37;28.30;;;;;;;0.70;100.00;102735.56;694127;28;1192;-64
2023/02/10 00:25:20;;;;;;;38.40;28.35;;;;;;;0.68;100.00;102731.19;691434;28;888;-64
2023/02/10 00:25:40;;;;;;;38.93;28.77;;;;;;;0.66;100.00;102732.75;692019;28;849;-63
2023/02/10 00:26:05;;;;;;;39.15;28.65;;;;;;;0.73;100.00;102731.50;691933;28;1133;-65
2023/02/10 00:26:26;;;;;;;41.58;29.10;;;;;;;0.84;100.00;102739.97;691642;28;2217;-64
2023/02/10 00:26:47;;;;;;;39.35;28.15;;;;;;;0.90;100.00;102732.66;692302;28;1364;-63
2023/02/10 00:27:07;;;;;;;38.25;27.55;;;;;;;0.90;100.00;102726.59;689702;28;924;-61
2023/02/10 00:27:28;;;;;;;38.17;27.13;;;;;;;0.89;100.00;102732.53;688839;28;1247;-62
2023/02/10 00:27:49;;;;;;;37.60;27.50;;;;;;;0.87;100.00;102732.44;688311;28;4285;-63
2023/02/10 00:28:10;;;;;;;37.77;27.83;;;;;;;0.86;100.00;102733.25;686993;28;959;-62
2023/02/10 00:28:33;;;;;;;36.38;27.92;;;;;;;0.84;100.00;102732.22;690201;28;1953;-63
2023/02/10 00:28:54;;;;;;;36.10;26.75;;;;;;;0.83;100.00;102728.78;693063;28;2351;-62
2023/02/10 00:29:14;;;;;;;37.87;27.50;;;;;;;0.83;100.00;102727.88;692212;28;1555;-62
2023/02/10 00:29:34;;;;;;;38.83;27.43;;;;;;;0.82;100.00;102731.25;692304;28;1255;-63
2023/02/10 00:29:55;;;;;;;36.80;26.55;;;;;;;0.81;100.00;102734.59;692645;28;1949;-63
2023/02/10 00:30:15;;;;;;;35.10;26.23;;;;;;;0.79;100.00;102739.66;690278;28;919;-64
2023/02/10 00:30:37;;;;;;;36.13;26.77;;;;;;;0.77;100.00;102736.06;692711;28;1319;-62
2023/02/10 00:30:58;;;;;;;37.40;26.35;;;;;;;0.76;100.00;102731.72;692896;28;5102;-63
2023/02/10 00:31:19;;;;;;;37.13;27.03;;;;;;;0.75;100.00;102735.09;695036;28;955;-64
2023/02/10 00:31:40;;;;;;;35.78;26.83;;;;;;;0.74;100.00;102743.59;695415;28;1455;-64
2023/02/10 00:32:01;;;;;;;38.65;27.80;;;;;;;0.72;100.00;102742.59;695994;28;1260;-65
2023/02/10 00:32:21;;;;;;;39.53;28.17;;;;;;;0.73;100.00;102735.75;695581;28;1268;-63
2023/02/10 00:32:41;;;;;;;40.00;28.67;;;;;;;0.74;100.00;102737.56;694900;28;1100;-63
2023/02/10 00:33:02;;;;;;;40.67;28.77;;;;;;;0.74;100.00;102742.72;694396;28;1074;-62
2023/02/10 00:33:22;;;;;;;38.47;28.17;;;;;;;0.74;100.00;102742.72;696896;28;2507;-63
2023/02/10 00:33:43;;;;;;;37.95;28.20;;;;;;;0.75;100.00;102735.09;694780;28;4593;-62
2023/02/10 00:34:03;;;;;;;39.53;28.57;;;;;;;0.77;100.00;102738.63;694690;28;781;-63
2023/02/10 00:34:24;;;;;;;40.30;28.40;;;;;;;0.75;100.00;102741.91;694178;28;1081;-62
2023/02/10 00:34:45;;;;;;;40.97;28.53;;;;;;;0.73;100.00;102741.78;690745;28;1516;-63
2023/02/10 00:35:08;;;;;;;39.97;28.13;;;;;;;0.74;100.00;102745.28;690836;28;1379;-63
2023/02/10 00:35:28;;;;;;;36.95;27.23;;;;;;;0.74;100.00;102741.00;692671;28;868;-62
2023/02/10 00:35:48;;;;;;;37.28;26.48;;;;;;;0.74;100.00;102748.75;693157;28;1005;-62
2023/02/10 00:36:12;;;;;;;38.30;27.40;;;;;;;0.74;100.00;102748.75;692309;28;2477;-61
2023/02/10 00:36:32;;;;;;;36.50;27.35;;;;;;;0.73;100.00;102739.22;693922;28;821;-65
2023/02/10 00:36:52;;;;;;;37.17;27.60;;;;;;;0.75;100.00;102749.63;693686;28;4454;-64
2023/02/10 00:37:13;;;;;;;37.20;28.13;;;;;;;0.72;100.00;102745.19;695413;28;1339;-65
2023/02/10 00:37:34;;;;;;;37.38;28.45;;;;;;;0.72;100.00;102752.00;692829;28;1066;-65
2023/02/10 00:37:54;;;;;;;39.58;28.65;;;;;;;0.71;100.00;102748.53;692525;28;1236;-64
2023/02/10 00:38:15;;;;;;;40.80;28.43;;;;;;;0.70;100.00;102745.84;689484;28;962;-65
2023/02/10 00:38:36;;;;;;;39.77;28.77;;;;;;;0.71;100.00;102747.63;690245;28;785;-67
2023/02/10 00:38:56;;;;;;;41.25;29.40;;;;;;;0.71;100.00;102745.97;691977;28;4887;-65
2023/02/10 00:39:17;;;;;;;39.60;29.13;;;;;;;0.70;100.00;102743.28;692815;28;943;-65
2023/02/10 00:39:37;;;;;;;39.57;28.83;;;;;;;0.71;100.00;102742.47;691393;28;4487;-64
2023/02/10 00:39:58;;;;;;;37.95;27.27;;;;;;;0.72;100.00;102749.41;692760;28;1220;-62
2023/02/10 00:40:20;;;;;;;37.78;28.23;;;;;;;0.72;100.00;102750.34;694815;28;825;-64
2023/02/10 00:40:41;;;;;;;36.77;28.10;;;;;;;0.73;100.00;102748.63;694906;28;757;-65
2023/02/10 00:41:05;;;;;;;38.95;28.17;;;;;;;0.73;100.00;102752.09;695330;28;1320;-64
2023/02/10 00:41:26;;;;;;;38.03;28.00;;;;;;;0.72;100.00;102742.59;695513;28;900;-65
2023/02/10 00:41:46;;;;;;;37.05;27.67;;;;;;;0.73;100.00;102748.63;694517;28;2369;-65
2023/02/10 00:42:07;;;;;;;35.37;26.90;;;;;;;0.73;100.00;102751.22;695567;28;765;-65
2023/02/10 00:42:29;;;;;;;33.80;26.83;;;;;;;0.73;100.00;102749.50;695703;28;752;-63
2023/02/10 00:42:49;;;;;;;35.23;26.47;;;;;;;0.74;100.00;102742.72;694578;28;4621;-65
2023/02/10 00:43:10;;;;;;;38.45;27.25;;;;;;;0.71;100.00;102748.53;694042;28;1153;-65
2023/02/10 00:43:30;;;;;;;40.83;28.10;;;;;;;0.72;100.00;102747.75;695582;28;849;-64
2023/02/10 00:43:51;;;;;;;41.90;28.52;;;;;;;0.70;100.00;102748.44;695493;28;1032;-62
2023/02/10 00:44:12;;;;;;;42.40;29.65;;;;;;;0.67;100.00;102750.00;693078;28;1332;-63
2023/02/10 00:44:32;;;;;;;40.43;29.20;;;;;;;0.67;100.00;102747.41;686780;28;2556;-63
2023/02/10 00:44:53;;;;;;;43.78;30.15;;;;;;;0.70;100.00;102745.84;687273;28;1399;-62
2023/02/10 00:45:13;;;;;;;41.73;29.27;;;;;;;0.71;100.00;102747.63;688934;28;789;-63
2023/02/10 00:45:33;;;;;;;38.63;28.75;;;;;;;0.74;100.00;102748.75;689569;28;827;-63
2023/02/10 00:45:54;;;;;;;39.37;29.00;;;;;;;0.77;100.00;102743.78;686951;28;4422;-64
2023/02/10 00:46:17;;;;;;;39.05;29.15;;;;;;;0.79;100.00;102739.66;689321;28;1202;-60
2023/02/10 00:46:38;;;;;;;39.50;28.63;;;;;;;0.81;100.00;102745.78;691700;28;1161;-62
2023/02/10 00:46:58;;;;;;;40.78;28.33;;;;;;;0.79;100.00;102747.38;692591;28;1312;-63
2023/02/10 00:47:20;;;;;;;39.05;27.70;;;;;;;0.79;100.00;102742.22;691848;28;1273;-63
2023/02/10 00:47:40;;;;;;;39.35;28.20;;;;;;;0.80;100.00;102743.09;690011;28;904;-62
2023/02/10 00:48:00;;;;;;;38.13;28.73;;;;;;;0.78;100.00;102749.84;692086;28;979;-61
2023/02/10 00:48:21;;;;;;;39.78;29.00;;;;;;;0.78;100.00;102742.13;688634;28;904;-63
2023/02/10 00:48:42;;;;;;;39.70;28.47;;;;;;;0.79;100.00;102746.47;687129;28;4698;-64
2023/02/10 00:49:04;;;;;;;39.78;28.65;;;;;;;0.82;100.00;102739.84;686864;28;2384;-64
2023/02/10 00:49:25;;;;;;;41.03;29.23;;;;;;;0.93;100.00;102743.16;688245;28;873;-65
2023/02/10 00:49:46;;;;;;;37.70;27.70;;;;;;;1.01;100.00;102739.44;690195;28;1251;-65
2023/02/10 00:50:07;;;;;;;39.10;27.27;;;;;;;1.04;100.00;102737.84;690114;28;864;-65
2023/02/10 00:50:27;;;;;;;37.22;27.05;;;;;;;1.04;100.00;102746.47;689376;28;1374;-66
2023/02/10 00:50:48;;;;;;;38.03;27.40;;;;;;;1.00;100.00;102742.78;687542;28;1257;-64
2023/02/10 00:51:08;;;;;;;39.57;27.87;;;;;;;1.02;100.00;102745.47;689744;28;832;-64
2023/02/10 00:51:29;;;;;;;38.42;28.30;;;;;;;0.99;100.00;102737.53;687711;28;1232;-65
2023/02/10 00:51:51;;;;;;;39.47;27.73;;;;;;;0.96;100.00;102745.06;686078;28;4313;-64
2023/02/10 00:52:12;;;;;;;36.97;27.15;;;;;;;0.93;100.00;102745.75;686493;28;1461;-64
2023/02/10 00:52:32;;;;;;;35.00;26.90;;;;;;;0.90;100.00;102742.97;688552;28;1502;-65
2023/02/10 00:52:53;;;;;;;35.93;27.10;;;;;;;0.88;100.00;102739.38;689609;28;918;-64
2023/02/10 00:53:13;;;;;;;36.65;27.15;;;;;;;0.88;100.00;102741.06;689818;28;2263;-64
2023/02/10 00:53:34;;;;;;;35.97;26.87;;;;;;;0.84;100.00;102742.53;692058;28;1247;-65
2023/02/10 00:53:54;;;;;;;36.35;26.88;;;;;;;0.82;100.00;102741.56;692123;28;960;-65
2023/02/10 00:54:14;;;;;;;36.47;26.85;;;;;;;0.81;100.00;102747.47;691323;28;1545;-65
2023/02/10 00:54:35;;;;;;;38.97;27.77;;;;;;;0.80;100.00;102750.84;688462;28;1536;-63
2023/02/10 00:54:55;;;;;;;41.57;28.13;;;;;;;0.80;100.00;102743.09;686479;28;4376;-64
2023/02/10 00:55:16;;;;;;;38.47;27.90;;;;;;;0.79;100.00;102751.63;684428;28;1157;-65
2023/02/10 00:55:36;;;;;;;37.70;26.90;;;;;;;0.79;100.00;102755.09;687114;28;1396;-64
2023/02/10 00:55:56;;;;;;;37.23;27.27;;;;;;;0.81;100.00;102742.34;684513;28;2388;-64
2023/02/10 00:56:19;;;;;;;39.97;27.77;;;;;;;0.81;100.00;102755.22;684268;28;1133;-64
2023/02/10 00:56:40;;;;;;;38.22;27.73;;;;;;;0.80;100.00;102749.19;687570;28;1191;-64
2023/02/10 00:57:00;;;;;;;38.08;27.67;;;;;;;0.80;100.00;102750.84;689743;28;1283;-64
2023/02/10 00:57:21;;;;;;;35.77;27.27;;;;;;;0.79;100.00;102755.09;692617;28;1289;-65
2023/02/10 00:57:43;;;;;;;38.17;28.08;;;;;;;0.79;100.00;102757.69;691431;28;4390;-63
2023/02/10 00:58:04;;;;;;;40.17;28.05;;;;;;;0.78;100.00;102750.72;692209;28;1181;-64
2023/02/10 00:58:25;;;;;;;39.77;28.73;;;;;;;0.83;100.00;102751.03;688892;28;951;-65
2023/02/10 00:58:46;;;;;;;40.83;27.92;;;;;;;0.83;100.00;102745.88;687431;28;2185;-60
2023/02/10 00:59:06;;;;;;;39.58;27.80;;;;;;;0.84;100.00;102745.09;686517;28;1169;-65
2023/02/10 00:59:28;;;;;;;38.42;28.48;;;;;;;0.84;100.00;102745.09;688041;28;1250;-65
2023/02/10 00:59:49;;;;;;;37.30;28.05;;;;;;;0.85;100.00;102752.06;689261;28;981;-64
2023/02/10 01:00:09;;;;;;;36.93;27.63;;;;;;;0.84;100.00;102745.09;689252;28;943;-63
2023/02/10 01:00:30;;;;;;;37.33;27.33;;;;;;;0.84;100.00;102745.09;691066;28;912;-65
2023/02/10 01:00:52;;;;;;;37.38;27.27;;;;;;;0.83;100.00;102741.66;691822;28;4354;-65
2023/02/10 01:01:12;;;;;;;36.50;27.10;;;;;;;0.81;100.00;102745.78;690739;28;2070;-65
2023/02/10 01:01:33;;;;;;;38.03;27.37;;;;;;;0.80;100.00;102743.09;691769;28;1162;-65
2023/02/10 01:01:54;;;;;;;39.40;27.70;;;;;;;0.79;100.00;102751.63;689048;28;1498;-65
2023/02/10 01:02:15;;;;;;;39.63;28.33;;;;;;;0.79;100.00;102752.53;688800;28;1098;-65
2023/02/10 01:02:35;;;;;;;38.75;28.83;;;;;;;0.78;100.00;102734.41;689830;28;895;-64
2023/02/10 01:02:55;;;;;;;40.23;29.10;;;;;;;0.77;100.00;102745.47;690112;28;1178;-64
2023/02/10 01:03:16;;;;;;;40.23;28.73;;;;;;;0.77;100.00;102746.38;692359;28;2211;-65
2023/02/10 01:03:37;;;;;;;41.10;29.57;;;;;;;0.78;100.00;102744.72;689811;28;1233;-65
2023/02/10 01:03:58;;;;;;;40.80;29.77;;;;;;;0.80;100.00;102743.09;690401;28;4641;-65
2023/02/10 01:04:21;;;;;;;40.75;29.85;;;;;;;0.81;100.00;102739.75;691540;28;865;-64
2023/02/10 01:04:42;;;;;;;40.80;29.47;;;;;;;0.80;100.00;102744.03;691954;28;895;-64
2023/02/10 01:05:03;;;;;;;40.00;28.33;;;;;;;0.81;100.00;102739.75;689544;28;1369;-65
2023/02/10 01:05:23;;;;;;;38.25;27.88;;;;;;;0.81;100.00;102750.06;687245;28;1231;-64
2023/02/10 01:05:44;;;;;;;38.17;27.63;;;;;;;0.79;100.00;102752.53;692078;28;1450;-64
2023/02/10 01:06:06;;;;;;;38.42;27.70;;;;;;;0.77;100.00;102740.34;692400;28;919;-65
2023/02/10 01:06:26;;;;;;;38.85;28.65;;;;;;;0.80;100.00;102746.59;692553;28;962;-64
2023/02/10 01:06:46;;;;;;;39.33;28.13;;;;;;;0.83;100.00;102743.31;691596;28;4314;-65
2023/02/10 01:07:07;;;;;;;40.13;28.53;;;;;;;0.84;100.00;102745.09;693397;28;1349;-65
2023/02/10 01:07:29;;;;;;;40.50;29.35;;;;;;;0.81;100.00;102755.22;691529;28;1156;-63
2023/02/10 01:07:49;;;;;;;41.35;29.38;;;;;;;0.78;100.00;102747.28;691518;28;1006;-62
2023/02/10 01:08:10;;;;;;;40.70;28.67;;;;;;;0.79;100.00;102749.03;690619;28;857;-65
2023/02/10 01:08:30;;;;;;;39.28;28.40;;;;;;;0.78;100.00;102749.84;689763;28;1917;-65
2023/02/10 01:08:51;;;;;;;40.05;29.42;;;;;;;0.77;100.00;102740.34;689470;28;994;-65
2023/02/10 01:09:11;;;;;;;40.67;29.73;;;;;;;0.76;100.00;102754.91;690114;28;778;-64
2023/02/10 01:09:32;;;;;;;39.90;30.08;;;;;;;0.77;100.00;102751.50;691980;28;2452;-65
2023/02/10 01:09:52;;;;;;;42.13;30.20;;;;;;;0.77;100.00;102750.63;687127;28;4530;-63
2023/02/10 01:10:12;;;;;;;41.65;29.38;;;;;;;0.78;100.00;102752.44;685969;28;1212;-62
2023/02/10 01:10:34;;;;;;;39.17;28.73;;;;;;;0.79;100.00;102749.97;689330;28;1003;-62
2023/02/10 01:11:03;;;;;;;40.42;29.63;;;;;;;0.77;100.00;102753.22;686876;28;986;-63
2023/02/10 01:11:24;;;;;;;41.15;29.77;;;;;;;0.78;100.00;102744.72;687989;28;1135;-64
2023/02/10 01:11:44;;;;;;;41.90;29.65;;;;;;;0.77;100.00;102754.09;688590;28;1068;-65
2023/02/10 01:12:06;;;;;;;41.70;29.87;;;;;;;0.77;100.00;102755.78;691678;28;915;-64
2023/02/10 01:12:26;;;;;;;40.70;29.90;;;;;;;0.75;100.00;102753.09;689611;28;1444;-64
2023/02/10 01:12:46;;;;;;;38.87;29.10;;;;;;;0.75;100.00;102750.53;690507;28;4349;-65
2023/02/10 01:13:08;;;;;;;41.05;29.73;;;;;;;0.75;100.00;102757.34;692961;28;785;-64
2023/02/10 01:13:29;;;;;;;42.92;30.50;;;;;;;0.77;100.00;102755.78;688535;28;2451;-65
2023/02/10 01:13:50;;;;;;;42.03;30.25;;;;;;;0.80;100.00;102761.13;689497;28;1189;-64
2023/02/10 01:14:11;;;;;;;42.77;30.13;;;;;;;0.79;100.00;102760.25;688891;28;1544;-64
2023/02/10 01:14:32;;;;;;;40.40;29.75;;;;;;;0.82;100.00;102757.88;689688;28;841;-62
2023/02/10 01:14:53;;;;;;;39.28;29.48;;;;;;;0.84;100.00;102745.09;689941;28;1593;-65
2023/02/10 01:15:13;;;;;;;39.60;28.73;;;;;;;0.84;100.00;102755.41;690499;28;1126;-63
2023/02/10 01:15:34;;;;;;;40.60;28.40;;;;;;;0.92;100.00;102758.53;691863;28;1023;-66
2023/02/10 01:15:55;;;;;;;37.53;27.70;;;;;;;0.93;100.00;102756.03;691518;28;4340;-63
2023/02/10 01:16:16;;;;;;;38.90;28.77;;;;;;;0.94;100.00;102757.84;689829;28;3506;-62
2023/02/10 01:16:37;;;;;;;38.75;28.88;;;;;;;0.91;100.00;102751.56;689367;28;1331;-65
2023/02/10 01:16:58;;;;;;;39.27;28.90;;;;;;;0.91;100.00;102751.56;687220;28;1672;-64
2023/02/10 01:17:18;;;;;;;37.90;28.23;;;;;;;0.88;100.00;102757.41;683757;28;1323;-64
2023/02/10 01:17:38;;;;;;;38.23;27.73;;;;;;;0.87;100.00;102760.75;687517;28;1440;-65
2023/02/10 01:17:59;;;;;;;40.53;28.70;;;;;;;0.86;100.00;102761.56;687233;28;1194;-65
2023/02/10 01:18:20;;;;;;;39.70;28.67;;;;;;;0.86;100.00;102764.16;689709;28;1496;-64
2023/02/10 01:18:41;;;;;;;38.05;28.27;;;;;;;0.85;100.00;102762.34;691909;28;4372;-64
2023/02/10 01:19:02;;;;;;;37.58;28.05;;;;;;;0.85;100.00;102764.94;694112;28;2290;-64
2023/02/10 01:19:24;;;;;;;41.00;28.23;;;;;;;0.84;100.00;102763.13;694230;28;1457;-66
2023/02/10 01:19:44;;;;;;;39.60;29.03;;;;;;;0.81;100.00;102761.25;694329;28;1375;-64
2023/02/10 01:20:05;;;;;;;38.33;28.42;;;;;;;0.82;100.00;102762.16;695490;28;1159;-65
2023/02/10 01:20:27;;;;;;;38.97;28.38;;;;;;;0.82;100.00;102763.03;692406;28;1185;-65
2023/02/10 01:20:47;;;;;;;38.78;28.63;;;;;;;0.80;100.00;102764.63;691705;28;1932;-65
2023/02/10 01:21:10;;;;;;;38.13;28.40;;;;;;;0.80;100.00;102764.63;692210;28;761;-64
2023/02/10 01:21:31;;;;;;;40.88;29.20;;;;;;;0.81;100.00;102773.22;692698;28;1059;-64
2023/02/10 01:21:52;;;;;;;40.97;28.92;;;;;;;0.82;100.00;102759.56;692108;28;4250;-65
2023/02/10 01:22:12;;;;;;;41.63;28.90;;;;;;;0.81;100.00;102766.38;689095;28;1148;-63
2023/02/10 01:22:33;;;;;;;41.03;29.47;;;;;;;0.81;100.00;102761.25;690289;28;1449;-62
2023/02/10 01:22:54;;;;;;;43.63;29.58;;;;;;;0.83;100.00;102766.50;691137;28;1133;-62
2023/02/10 01:23:14;;;;;;;42.23;29.43;;;;;;;0.84;100.00;102770.84;692193;28;1086;-66
2023/02/10 01:23:34;;;;;;;41.77;30.33;;;;;;;0.84;100.00;102765.72;692145;28;2580;-62
2023/02/10 01:23:55;;;;;;;42.90;30.48;;;;;;;0.86;100.00;102756.44;692359;28;896;-66
2023/02/10 01:24:15;;;;;;;43.00;30.08;;;;;;;0.85;100.00;102763.22;693140;28;1262;-62
2023/02/10 01:24:36;;;;;;;41.50;29.73;;;;;;;0.84;100.00;102760.56;691226;28;954;-63
2023/02/10 01:24:56;;;;;;;40.80;29.35;;;;;;;0.83;100.00;102763.91;689655;28;4357;-63
2023/02/10 01:25:17;;;;;;;41.70;29.60;;;;;;;0.81;100.00;102765.50;691364;28;994;-63
2023/02/10 01:25:37;;;;;;;40.20;28.77;;;;;;;0.80;100.00;102759.47;690497;28;1624;-62
2023/02/10 01:25:59;;;;;;;42.53;29.80;;;;;;;0.80;100.00;102762.06;691038;28;947;-62
2023/02/10 01:26:19;;;;;;;40.15;28.92;;;;;;;0.80;100.00;102763.72;691378;28;2675;-63
2023/02/10 01:26:40;;;;;;;39.17;28.13;;;;;;;0.81;100.00;102765.50;694870;28;784;-64
2023/02/10 01:27:00;;;;;;;40.22;29.30;;;;;;;0.83;100.00;102762.25;693254;28;1609;-63
2023/02/10 01:27:20;;;;;;;40.07;29.03;;;;;;;0.88;100.00;102766.81;694229;28;818;-64
2023/02/10 01:27:41;;;;;;;39.53;29.50;;;;;;;0.91;100.00;102762.75;691132;28;4402;-63
2023/02/10 01:28:03;;;;;;;37.77;29.07;;;;;;;0.93;100.00;102760.28;687055;28;1338;-63
2023/02/10 01:28:23;;;;;;;39.13;28.73;;;;;;;0.97;100.00;102764.84;683368;28;1397;-64
2023/02/10 01:28:44;;;;;;;39.42;28.52;;;;;;;0.98;100.00;102769.22;683367;28;1926;-62
2023/02/10 01:29:05;;;;;;;39.30;28.90;;;;;;;0.96;100.00;102763.97;683289;28;2463;-63
2023/02/10 01:29:25;;;;;;;42.13;29.23;;;;;;;0.96;100.00;102761.41;686951;28;1774;-64
2023/02/10 01:29:45;;;;;;;43.27;29.43;;;;;;;0.96;100.00;102760.53;690446;28;1008;-63
2023/02/10 01:30:06;;;;;;;41.07;28.33;;;;;;;0.94;100.00;102765.56;694228;28;800;-63
2023/02/10 01:30:27;;;;;;;37.70;27.65;;;;;;;0.92;100.00;102764.56;693876;28;1116;-62
2023/02/10 01:30:47;;;;;;;38.50;28.23;;;;;;;0.89;100.00;102761.78;694299;28;4342;-63
2023/02/10 01:31:10;;;;;;;39.33;28.20;;;;;;;0.86;100.00;102769.31;694591;28;1271;-63
2023/02/10 01:31:30;;;;;;;42.38;29.30;;;;;;;0.83;100.00;102767.41;694228;28;2057;-63
2023/02/10 01:31:51;;;;;;;41.97;29.45;;;;;;;0.85;100.00;102768.38;691950;28;1781;-63
2023/02/10 01:32:11;;;;;;;42.60;29.77;;;;;;;0.88;100.00;102770.28;690036;28;840;-62
2023/02/10 01:32:32;;;;;;;39.27;29.37;;;;;;;0.88;100.00;102765.13;689097;28;907;-62
2023/02/10 01:32:53;;;;;;;40.77;29.43;;;;;;;0.89;100.00;102766.00;689621;28;1490;-63
2023/02/10 01:33:14;;;;;;;40.08;29.45;;;;;;;0.91;100.00;102764.44;689656;28;927;-63
2023/02/10 01:33:34;;;;;;;41.63;29.93;;;;;;;0.92;100.00;102764.56;689503;28;2336;-63
2023/02/10 01:33:55;;;;;;;40.40;28.77;;;;;;;0.92;100.00;102768.81;691932;28;4291;-62
2023/02/10 01:34:15;;;;;;;39.10;28.17;;;;;;;0.91;100.00;102767.91;695140;28;1085;-61
2023/02/10 01:34:37;;;;;;;37.85;28.65;;;;;;;0.91;100.00;102773.06;694430;28;1638;-63
2023/02/10 01:34:59;;;;;;;38.00;28.63;;;;;;;0.88;100.00;102772.84;691663;28;1448;-63
2023/02/10 01:35:19;;;;;;;39.87;28.23;;;;;;;0.87;100.00;102762.47;689237;28;1274;-59
2023/02/10 01:35:40;;;;;;;42.33;29.63;;;;;;;0.88;100.00;102771.97;689892;28;800;-63
2023/02/10 01:36:10;;;;;;;40.17;30.02;;;;;;;0.91;100.00;102772.19;688692;28;2232;-60
2023/02/10 01:36:31;;;;;;;38.14;28.30;;;;;;;0.93;100.00;102766.34;690149;28;844;-63
2023/02/10 01:36:51;;;;;;;40.20;29.20;;;;;;;0.93;100.00;102775.75;684706;28;4415;-62
2023/02/10 01:37:12;;;;;;;40.88;28.85;;;;;;;0.92;100.00;102768.81;684563;28;1523;-63
2023/02/10 01:37:33;;;;;;;38.23;28.93;;;;;;;0.91;100.00;102773.06;688808;28;706;-64
2023/02/10 01:37:56;;;;;;;39.47;28.67;;;;;;;0.90;100.00;102768.72;690576;28;1234;-63
2023/02/10 01:38:17;;;;;;;42.55;29.98;;;;;;;0.95;100.00;102767.34;688922;28;1244;-63